sensor_id;sensor_type;location;lat;lon;timestamp;pressure;altitude;pressure_sealevel;temperature;humidity
50302;BME280;36550;50.472;19.744;2024-03-08T00:02:44;98732.89;;;-2.83;85.46
50302;BME280;36550;50.472;19.744;2024-03-08T00:05:29;98732.61;;;-2.82;85.54
50302;BME280;36550;50.472;19.744;2024-03-08T00:08:13;98727.73;;;-2.81;85.72
50302;BME280;36550;50.472;19.744;2024-03-08T00:10:57;98730.62;;;-2.80;85.61
50302;BME280;36550;50.472;19.744;2024-03-08T00:13:41;98732.67;;;-2.80;85.59
50302;BME280;36550;50.472;19.744;2024-03-08T00:16:26;98734.14;;;-2.80;85.61
50302;BME280;36550;50.472;19.744;2024-03-08T00:19:10;98734.45;;;-2.79;85.84
50302;BME280;36550;50.472;19.744;2024-03-08T00:21:54;98732.17;;;-2.79;85.79
50302;BME280;36550;50.472;19.744;2024-03-08T00:24:39;98729.48;;;-2.79;85.67
50302;BME280;36550;50.472;19.744;2024-03-08T00:27:23;98731.84;;;-2.82;85.87
50302;BME280;36550;50.472;19.744;2024-03-08T00:30:08;98735.23;;;-2.86;86.08
50302;BME280;36550;50.472;19.744;2024-03-08T00:32:52;98730.90;;;-2.88;86.11
50302;BME280;36550;50.472;19.744;2024-03-08T00:35:37;98729.70;;;-2.87;86.31
50302;BME280;36550;50.472;19.744;2024-03-08T00:38:21;98729.95;;;-2.88;86.29
50302;BME280;36550;50.472;19.744;2024-03-08T00:41:05;98733.23;;;-2.87;86.38
50302;BME280;36550;50.472;19.744;2024-03-08T00:43:49;98732.64;;;-2.82;86.44
50302;BME280;36550;50.472;19.744;2024-03-08T00:46:34;98728.89;;;-2.76;86.54
50302;BME280;36550;50.472;19.744;2024-03-08T00:49:18;98732.06;;;-2.67;86.70
50302;BME280;36550;50.472;19.744;2024-03-08T00:52:02;98730.05;;;-2.58;86.86
50302;BME280;36550;50.472;19.744;2024-03-08T00:54:47;98726.10;;;-2.49;86.99
50302;BME280;36550;50.472;19.744;2024-03-08T00:57:31;98727.64;;;-2.40;87.23
50302;BME280;36550;50.472;19.744;2024-03-08T01:00:16;98727.35;;;-2.31;87.19
50302;BME280;36550;50.472;19.744;2024-03-08T01:03:00;98723.80;;;-2.21;87.30
50302;BME280;36550;50.472;19.744;2024-03-08T01:05:44;98723.83;;;-2.12;87.47
50302;BME280;36550;50.472;19.744;2024-03-08T01:08:29;98721.49;;;-2.05;87.61
50302;BME280;36550;50.472;19.744;2024-03-08T01:11:13;98719.98;;;-1.95;87.80
50302;BME280;36550;50.472;19.744;2024-03-08T01:13:58;98717.89;;;-1.87;87.90
50302;BME280;36550;50.472;19.744;2024-03-08T01:16:41;98719.33;;;-1.79;88.06
50302;BME280;36550;50.472;19.744;2024-03-08T01:19:25;98716.49;;;-1.70;88.26
50302;BME280;36550;50.472;19.744;2024-03-08T01:22:09;98714.90;;;-1.62;88.29
50302;BME280;36550;50.472;19.744;2024-03-08T01:24:53;98716.41;;;-1.54;88.23
50302;BME280;36550;50.472;19.744;2024-03-08T01:27:37;98709.02;;;-1.46;88.22
50302;BME280;36550;50.472;19.744;2024-03-08T01:30:22;98706.23;;;-1.40;88.05
50302;BME280;36550;50.472;19.744;2024-03-08T01:33:07;98707.14;;;-1.33;88.05
50302;BME280;36550;50.472;19.744;2024-03-08T01:35:54;98704.86;;;-1.25;88.10
50302;BME280;36550;50.472;19.744;2024-03-08T01:38:38;98709.43;;;-1.17;88.10
50302;BME280;36550;50.472;19.744;2024-03-08T01:41:22;98702.06;;;-1.11;88.18
50302;BME280;36550;50.472;19.744;2024-03-08T01:44:07;98698.81;;;-1.06;88.30
50302;BME280;36550;50.472;19.744;2024-03-08T01:46:53;98695.17;;;-1.03;88.24
50302;BME280;36550;50.472;19.744;2024-03-08T01:49:38;98691.58;;;-1.00;88.22
50302;BME280;36550;50.472;19.744;2024-03-08T01:52:22;98688.50;;;-0.96;88.23
50302;BME280;36550;50.472;19.744;2024-03-08T01:55:07;98686.03;;;-0.94;88.13
50302;BME280;36550;50.472;19.744;2024-03-08T01:57:51;98685.17;;;-0.90;88.14
50302;BME280;36550;50.472;19.744;2024-03-08T02:00:36;98688.32;;;-0.85;88.03
50302;BME280;36550;50.472;19.744;2024-03-08T02:03:24;98681.59;;;-0.81;88.08
50302;BME280;36550;50.472;19.744;2024-03-08T02:06:07;98678.23;;;-0.78;87.89
50302;BME280;36550;50.472;19.744;2024-03-08T02:08:54;98676.55;;;-0.73;88.07
50302;BME280;36550;50.472;19.744;2024-03-08T02:11:41;98671.60;;;-0.68;88.04
50302;BME280;36550;50.472;19.744;2024-03-08T02:14:25;98673.23;;;-0.66;87.93
50302;BME280;36550;50.472;19.744;2024-03-08T02:17:09;98670.28;;;-0.64;87.90
50302;BME280;36550;50.472;19.744;2024-03-08T02:19:53;98667.44;;;-0.64;88.05
50302;BME280;36550;50.472;19.744;2024-03-08T02:22:37;98665.42;;;-0.67;87.82
50302;BME280;36550;50.472;19.744;2024-03-08T02:25:21;98666.23;;;-0.66;87.96
50302;BME280;36550;50.472;19.744;2024-03-08T02:28:06;98662.64;;;-0.64;88.12
50302;BME280;36550;50.472;19.744;2024-03-08T02:30:53;98661.83;;;-0.65;88.01
50302;BME280;36550;50.472;19.744;2024-03-08T02:33:40;98660.95;;;-0.67;87.91
50302;BME280;36550;50.472;19.744;2024-03-08T02:36:24;98659.87;;;-0.64;87.88
50302;BME280;36550;50.472;19.744;2024-03-08T02:39:08;98659.91;;;-0.61;88.04
50302;BME280;36550;50.472;19.744;2024-03-08T02:41:54;98660.36;;;-0.56;87.99
50302;BME280;36550;50.472;19.744;2024-03-08T02:44:42;98661.05;;;-0.51;88.16
50302;BME280;36550;50.472;19.744;2024-03-08T02:47:28;98661.38;;;-0.48;87.99
50302;BME280;36550;50.472;19.744;2024-03-08T02:50:15;98660.73;;;-0.46;87.89
50302;BME280;36550;50.472;19.744;2024-03-08T02:53:00;98661.44;;;-0.44;87.96
50302;BME280;36550;50.472;19.744;2024-03-08T02:55:44;98662.44;;;-0.44;87.80
50302;BME280;36550;50.472;19.744;2024-03-08T02:58:28;98661.83;;;-0.49;87.62
50302;BME280;36550;50.472;19.744;2024-03-08T03:01:12;98661.27;;;-0.52;87.56
50302;BME280;36550;50.472;19.744;2024-03-08T03:03:56;98663.27;;;-0.51;87.77
50302;BME280;36550;50.472;19.744;2024-03-08T03:06:40;98664.46;;;-0.51;87.72
50302;BME280;36550;50.472;19.744;2024-03-08T03:09:25;98663.41;;;-0.49;87.68
50302;BME280;36550;50.472;19.744;2024-03-08T03:12:11;98663.75;;;-0.45;87.71
50302;BME280;36550;50.472;19.744;2024-03-08T03:14:58;98667.98;;;-0.45;87.45
50302;BME280;36550;50.472;19.744;2024-03-08T03:17:50;98661.27;;;-0.45;87.39
50302;BME280;36550;50.472;19.744;2024-03-08T03:20:37;98666.34;;;-0.40;87.53
50302;BME280;36550;50.472;19.744;2024-03-08T03:23:24;98671.05;;;-0.37;87.43
50302;BME280;36550;50.472;19.744;2024-03-08T03:26:10;98666.20;;;-0.35;87.37
50302;BME280;36550;50.472;19.744;2024-03-08T03:28:57;98662.16;;;-0.32;87.55
50302;BME280;36550;50.472;19.744;2024-03-08T03:31:42;98660.02;;;-0.30;87.71
50302;BME280;36550;50.472;19.744;2024-03-08T03:34:30;98657.67;;;-0.32;87.28
50302;BME280;36550;50.472;19.744;2024-03-08T03:37:14;98655.67;;;-0.36;87.20
50302;BME280;36550;50.472;19.744;2024-03-08T03:39:58;98657.66;;;-0.43;86.94
50302;BME280;36550;50.472;19.744;2024-03-08T03:42:42;98661.23;;;-0.48;87.00
50302;BME280;36550;50.472;19.744;2024-03-08T03:45:26;98660.09;;;-0.50;87.03
50302;BME280;36550;50.472;19.744;2024-03-08T03:48:10;98660.87;;;-0.48;87.20
50302;BME280;36550;50.472;19.744;2024-03-08T03:50:55;98662.86;;;-0.45;87.28
50302;BME280;36550;50.472;19.744;2024-03-08T03:53:39;98664.10;;;-0.44;87.06
50302;BME280;36550;50.472;19.744;2024-03-08T03:56:27;98662.09;;;-0.44;86.93
50302;BME280;36550;50.472;19.744;2024-03-08T03:59:11;98659.61;;;-0.44;87.23
50302;BME280;36550;50.472;19.744;2024-03-08T04:01:55;98665.79;;;-0.42;87.32
50302;BME280;36550;50.472;19.744;2024-03-08T04:04:40;98661.68;;;-0.38;87.38
50302;BME280;36550;50.472;19.744;2024-03-08T04:07:24;98662.12;;;-0.34;87.24
50302;BME280;36550;50.472;19.744;2024-03-08T04:10:09;98654.84;;;-0.33;86.78
50302;BME280;36550;50.472;19.744;2024-03-08T04:12:53;98650.33;;;-0.31;86.88
50302;BME280;36550;50.472;19.744;2024-03-08T04:15:37;98652.60;;;-0.31;86.00
50302;BME280;36550;50.472;19.744;2024-03-08T04:18:21;98647.92;;;-0.31;86.02
50302;BME280;36550;50.472;19.744;2024-03-08T04:21:05;98650.19;;;-0.31;85.79
50302;BME280;36550;50.472;19.744;2024-03-08T04:23:53;98649.88;;;-0.31;86.08
50302;BME280;36550;50.472;19.744;2024-03-08T04:26:37;98652.83;;;-0.34;85.81
50302;BME280;36550;50.472;19.744;2024-03-08T04:29:21;98652.67;;;-0.37;85.44
50302;BME280;36550;50.472;19.744;2024-03-08T04:32:06;98650.69;;;-0.39;85.60
50302;BME280;36550;50.472;19.744;2024-03-08T04:34:52;98650.17;;;-0.35;86.02
50302;BME280;36550;50.472;19.744;2024-03-08T04:37:36;98656.55;;;-0.31;86.07
50302;BME280;36550;50.472;19.744;2024-03-08T04:40:20;98656.13;;;-0.29;86.07
50302;BME280;36550;50.472;19.744;2024-03-08T04:43:05;98656.09;;;-0.30;85.68
50302;BME280;36550;50.472;19.744;2024-03-08T04:45:50;98661.23;;;-0.33;85.52
50302;BME280;36550;50.472;19.744;2024-03-08T04:48:34;98663.98;;;-0.37;85.47
50302;BME280;36550;50.472;19.744;2024-03-08T04:51:20;98664.55;;;-0.38;85.63
50302;BME280;36550;50.472;19.744;2024-03-08T04:54:04;98663.59;;;-0.38;85.78
50302;BME280;36550;50.472;19.744;2024-03-08T04:56:51;98661.39;;;-0.37;86.03
50302;BME280;36550;50.472;19.744;2024-03-08T04:59:35;98662.05;;;-0.33;86.12
50302;BME280;36550;50.472;19.744;2024-03-08T05:02:20;98657.59;;;-0.31;85.80
50302;BME280;36550;50.472;19.744;2024-03-08T05:05:06;98658.66;;;-0.30;85.57
50302;BME280;36550;50.472;19.744;2024-03-08T05:07:50;98657.10;;;-0.32;85.48
50302;BME280;36550;50.472;19.744;2024-03-08T05:10:34;98660.38;;;-0.33;85.53
50302;BME280;36550;50.472;19.744;2024-03-08T05:13:18;98658.64;;;-0.33;85.76
50302;BME280;36550;50.472;19.744;2024-03-08T05:16:03;98660.84;;;-0.33;85.78
50302;BME280;36550;50.472;19.744;2024-03-08T05:18:47;98658.75;;;-0.34;85.50
50302;BME280;36550;50.472;19.744;2024-03-08T05:21:32;98656.55;;;-0.36;84.63
50302;BME280;36550;50.472;19.744;2024-03-08T05:24:17;98653.95;;;-0.38;84.35
50302;BME280;36550;50.472;19.744;2024-03-08T05:27:02;98654.49;;;-0.39;84.41
50302;BME280;36550;50.472;19.744;2024-03-08T05:29:47;98660.70;;;-0.44;83.87
50302;BME280;36550;50.472;19.744;2024-03-08T05:32:31;98662.09;;;-0.48;84.09
50302;BME280;36550;50.472;19.744;2024-03-08T05:35:16;98660.33;;;-0.49;84.45
50302;BME280;36550;50.472;19.744;2024-03-08T05:38:03;98663.11;;;-0.49;84.76
50302;BME280;36550;50.472;19.744;2024-03-08T05:40:47;98658.77;;;-0.52;84.38
50302;BME280;36550;50.472;19.744;2024-03-08T05:43:31;98654.85;;;-0.53;84.49
50302;BME280;36550;50.472;19.744;2024-03-08T05:46:15;98658.91;;;-0.50;84.66
50302;BME280;36550;50.472;19.744;2024-03-08T05:49:02;98659.54;;;-0.48;84.78
50302;BME280;36550;50.472;19.744;2024-03-08T05:51:49;98658.65;;;-0.46;84.63
50302;BME280;36550;50.472;19.744;2024-03-08T05:54:33;98660.59;;;-0.43;84.87
50302;BME280;36550;50.472;19.744;2024-03-08T05:57:17;98659.50;;;-0.41;84.92
50302;BME280;36550;50.472;19.744;2024-03-08T06:00:02;98665.65;;;-0.38;85.03
50302;BME280;36550;50.472;19.744;2024-03-08T06:02:46;98661.65;;;-0.36;85.04
50302;BME280;36550;50.472;19.744;2024-03-08T06:05:30;98665.86;;;-0.33;84.72
50302;BME280;36550;50.472;19.744;2024-03-08T06:08:15;98659.29;;;-0.29;84.71
50302;BME280;36550;50.472;19.744;2024-03-08T06:10:59;98660.06;;;-0.23;84.67
50302;BME280;36550;50.472;19.744;2024-03-08T06:13:44;98664.33;;;-0.15;84.40
50302;BME280;36550;50.472;19.744;2024-03-08T06:16:28;98665.46;;;-0.06;84.43
50302;BME280;36550;50.472;19.744;2024-03-08T06:19:13;98664.10;;;0.01;84.38
50302;BME280;36550;50.472;19.744;2024-03-08T06:21:57;98667.91;;;0.08;84.36
50302;BME280;36550;50.472;19.744;2024-03-08T06:24:42;98666.55;;;0.11;84.08
50302;BME280;36550;50.472;19.744;2024-03-08T06:27:26;98665.67;;;0.16;84.09
50302;BME280;36550;50.472;19.744;2024-03-08T06:30:11;98666.34;;;0.24;83.77
50302;BME280;36550;50.472;19.744;2024-03-08T06:32:56;98657.92;;;0.25;83.31
50302;BME280;36550;50.472;19.744;2024-03-08T06:35:40;98658.30;;;0.33;83.48
50302;BME280;36550;50.472;19.744;2024-03-08T06:38:24;98661.59;;;0.44;83.49
50302;BME280;36550;50.472;19.744;2024-03-08T06:41:09;98663.13;;;0.54;83.25
50302;BME280;36550;50.472;19.744;2024-03-08T06:43:59;98665.03;;;0.65;83.18
50302;BME280;36550;50.472;19.744;2024-03-08T06:46:43;98664.65;;;0.75;83.27
50302;BME280;36550;50.472;19.744;2024-03-08T06:49:27;98663.98;;;0.85;83.11
50302;BME280;36550;50.472;19.744;2024-03-08T06:52:11;98665.14;;;0.91;82.28
50302;BME280;36550;50.472;19.744;2024-03-08T06:54:56;98666.37;;;0.96;81.71
50302;BME280;36550;50.472;19.744;2024-03-08T06:57:41;98669.81;;;1.02;81.68
50302;BME280;36550;50.472;19.744;2024-03-08T07:00:25;98671.96;;;1.08;81.33
50302;BME280;36550;50.472;19.744;2024-03-08T07:03:12;98673.86;;;1.13;81.41
50302;BME280;36550;50.472;19.744;2024-03-08T07:06:01;98672.52;;;1.22;81.59
50302;BME280;36550;50.472;19.744;2024-03-08T07:08:46;98675.20;;;1.28;81.40
50302;BME280;36550;50.472;19.744;2024-03-08T07:11:30;98674.27;;;1.33;80.97
50302;BME280;36550;50.472;19.744;2024-03-08T07:14:14;98676.70;;;1.38;80.55
50302;BME280;36550;50.472;19.744;2024-03-08T07:16:59;98672.02;;;1.47;80.70
50302;BME280;36550;50.472;19.744;2024-03-08T07:19:43;98673.77;;;1.58;80.44
50302;BME280;36550;50.472;19.744;2024-03-08T07:22:27;98673.77;;;1.60;79.10
50302;BME280;36550;50.472;19.744;2024-03-08T07:25:11;98675.93;;;1.67;79.76
50302;BME280;36550;50.472;19.744;2024-03-08T07:28:05;98681.67;;;1.77;80.06
50302;BME280;36550;50.472;19.744;2024-03-08T07:30:50;98678.89;;;1.86;79.29
50302;BME280;36550;50.472;19.744;2024-03-08T07:33:45;98680.64;;;1.91;78.80
50302;BME280;36550;50.472;19.744;2024-03-08T07:36:29;98678.10;;;2.01;79.18
50302;BME280;36550;50.472;19.744;2024-03-08T07:39:14;98671.52;;;2.07;78.40
50302;BME280;36550;50.472;19.744;2024-03-08T07:41:58;98669.08;;;2.15;78.19
50302;BME280;36550;50.472;19.744;2024-03-08T07:44:42;98669.39;;;2.20;78.04
50302;BME280;36550;50.472;19.744;2024-03-08T07:47:26;98669.96;;;2.24;77.21
50302;BME280;36550;50.472;19.744;2024-03-08T07:50:10;98670.59;;;2.34;77.83
50302;BME280;36550;50.472;19.744;2024-03-08T07:52:55;98668.46;;;2.49;77.97
50302;BME280;36550;50.472;19.744;2024-03-08T07:55:39;98671.02;;;2.61;76.52
50302;BME280;36550;50.472;19.744;2024-03-08T07:58:26;98667.49;;;2.71;75.61
50302;BME280;36550;50.472;19.744;2024-03-08T08:01:17;98657.02;;;2.81;76.54
50302;BME280;36550;50.472;19.744;2024-03-08T08:04:02;98659.16;;;2.79;75.98
50302;BME280;36550;50.472;19.744;2024-03-08T08:06:46;98656.13;;;2.75;77.13
50302;BME280;36550;50.472;19.744;2024-03-08T08:09:30;98656.16;;;2.70;75.89
50302;BME280;36550;50.472;19.744;2024-03-08T08:12:18;98657.40;;;2.68;76.02
50302;BME280;36550;50.472;19.744;2024-03-08T08:15:02;98655.87;;;2.60;74.71
50302;BME280;36550;50.472;19.744;2024-03-08T08:17:46;98659.13;;;2.51;75.31
50302;BME280;36550;50.472;19.744;2024-03-08T08:20:31;98663.63;;;2.41;74.42
50302;BME280;36550;50.472;19.744;2024-03-08T08:23:15;98664.36;;;2.31;74.20
50302;BME280;36550;50.472;19.744;2024-03-08T08:25:59;98664.79;;;2.27;74.67
50302;BME280;36550;50.472;19.744;2024-03-08T08:28:43;98663.20;;;2.29;74.94
50302;BME280;36550;50.472;19.744;2024-03-08T08:31:32;98660.65;;;2.35;75.24
50302;BME280;36550;50.472;19.744;2024-03-08T08:34:17;98658.16;;;2.41;75.26
50302;BME280;36550;50.472;19.744;2024-03-08T08:37:03;98656.82;;;2.43;75.10
50302;BME280;36550;50.472;19.744;2024-03-08T08:39:48;98658.49;;;2.36;74.03
50302;BME280;36550;50.472;19.744;2024-03-08T08:42:33;98661.83;;;2.30;73.70
50302;BME280;36550;50.472;19.744;2024-03-08T08:45:17;98660.39;;;2.34;74.30
50302;BME280;36550;50.472;19.744;2024-03-08T08:48:01;98655.48;;;2.35;73.76
50302;BME280;36550;50.472;19.744;2024-03-08T08:50:46;98659.27;;;2.35;74.31
50302;BME280;36550;50.472;19.744;2024-03-08T08:53:31;98653.60;;;2.33;74.52
50302;BME280;36550;50.472;19.744;2024-03-08T08:56:15;98658.61;;;2.39;74.98
50302;BME280;36550;50.472;19.744;2024-03-08T08:59:00;98663.73;;;2.40;74.17
50302;BME280;36550;50.472;19.744;2024-03-08T09:01:43;98659.39;;;2.39;74.16
50302;BME280;36550;50.472;19.744;2024-03-08T09:04:30;98658.14;;;2.38;74.41
50302;BME280;36550;50.472;19.744;2024-03-08T09:07:14;98651.54;;;2.33;74.00
50302;BME280;36550;50.472;19.744;2024-03-08T09:10:00;98654.75;;;2.29;73.79
50302;BME280;36550;50.472;19.744;2024-03-08T09:12:44;98652.62;;;2.21;73.41
50302;BME280;36550;50.472;19.744;2024-03-08T09:15:28;98643.02;;;2.21;74.26
50302;BME280;36550;50.472;19.744;2024-03-08T09:18:13;98636.73;;;2.21;74.59
50302;BME280;36550;50.472;19.744;2024-03-08T09:20:57;98634.71;;;2.27;75.30
50302;BME280;36550;50.472;19.744;2024-03-08T09:23:41;98630.57;;;2.32;75.13
50302;BME280;36550;50.472;19.744;2024-03-08T09:26:29;98628.69;;;2.40;75.29
50302;BME280;36550;50.472;19.744;2024-03-08T09:29:13;98619.20;;;2.41;75.00
50302;BME280;36550;50.472;19.744;2024-03-08T09:31:57;98620.05;;;2.48;75.46
50302;BME280;36550;50.472;19.744;2024-03-08T09:34:41;98618.02;;;2.47;74.77
50302;BME280;36550;50.472;19.744;2024-03-08T09:37:25;98621.14;;;2.54;75.47
50302;BME280;36550;50.472;19.744;2024-03-08T09:40:09;98621.20;;;2.58;75.12
50302;BME280;36550;50.472;19.744;2024-03-08T09:42:54;98622.22;;;2.61;74.51
50302;BME280;36550;50.472;19.744;2024-03-08T09:45:40;98619.76;;;2.66;75.42
50302;BME280;36550;50.472;19.744;2024-03-08T09:48:25;98617.67;;;2.70;74.78
50302;BME280;36550;50.472;19.744;2024-03-08T09:51:10;98621.95;;;2.69;73.63
50302;BME280;36550;50.472;19.744;2024-03-08T09:53:59;98618.48;;;2.68;72.98
50302;BME280;36550;50.472;19.744;2024-03-08T09:56:43;98617.11;;;2.73;74.40
50302;BME280;36550;50.472;19.744;2024-03-08T09:59:30;98619.03;;;2.76;74.11
50302;BME280;36550;50.472;19.744;2024-03-08T10:02:21;98612.61;;;2.80;73.52
50302;BME280;36550;50.472;19.744;2024-03-08T10:05:05;98610.64;;;2.85;73.90
50302;BME280;36550;50.472;19.744;2024-03-08T10:07:49;98613.42;;;2.91;74.37
50302;BME280;36550;50.472;19.744;2024-03-08T10:10:34;98612.32;;;2.98;74.72
50302;BME280;36550;50.472;19.744;2024-03-08T10:13:19;98616.61;;;3.03;73.55
50302;BME280;36550;50.472;19.744;2024-03-08T10:16:04;98618.46;;;3.06;72.60
50302;BME280;36550;50.472;19.744;2024-03-08T10:18:49;98608.08;;;3.08;72.81
50302;BME280;36550;50.472;19.744;2024-03-08T10:21:32;98610.04;;;3.13;72.49
50302;BME280;36550;50.472;19.744;2024-03-08T10:24:17;98613.25;;;3.18;73.07
50302;BME280;36550;50.472;19.744;2024-03-08T10:27:01;98609.99;;;3.27;73.45
50302;BME280;36550;50.472;19.744;2024-03-08T10:29:48;98608.06;;;3.38;74.15
50302;BME280;36550;50.472;19.744;2024-03-08T10:32:34;98606.77;;;3.45;73.76
50302;BME280;36550;50.472;19.744;2024-03-08T10:35:18;98603.95;;;3.50;73.22
50302;BME280;36550;50.472;19.744;2024-03-08T10:38:04;98600.45;;;3.52;73.56
50302;BME280;36550;50.472;19.744;2024-03-08T10:40:51;98602.73;;;3.51;73.35
50302;BME280;36550;50.472;19.744;2024-03-08T10:47:00;98600.66;;;3.46;71.93
50302;BME280;36550;50.472;19.744;2024-03-08T10:52:52;98594.69;;;3.44;72.12
50302;BME280;36550;50.472;19.744;2024-03-08T10:55:40;98592.03;;;3.42;72.67
50302;BME280;36550;50.472;19.744;2024-03-08T10:58:26;98589.60;;;3.42;72.78
50302;BME280;36550;50.472;19.744;2024-03-08T11:01:11;98589.47;;;3.39;72.62
50302;BME280;36550;50.472;19.744;2024-03-08T11:03:56;98587.80;;;3.39;72.85
50302;BME280;36550;50.472;19.744;2024-03-08T11:09:31;98582.34;;;3.48;72.61
50302;BME280;36550;50.472;19.744;2024-03-08T11:12:28;98580.55;;;3.47;72.73
50302;BME280;36550;50.472;19.744;2024-03-08T11:15:15;98576.56;;;3.47;72.72
50302;BME280;36550;50.472;19.744;2024-03-08T11:18:03;98581.00;;;3.49;71.99
50302;BME280;36550;50.472;19.744;2024-03-08T11:20:49;98575.98;;;3.54;72.26
50302;BME280;36550;50.472;19.744;2024-03-08T11:23:34;98574.16;;;3.55;71.95
50302;BME280;36550;50.472;19.744;2024-03-08T11:26:20;98574.80;;;3.57;72.08
50302;BME280;36550;50.472;19.744;2024-03-08T11:34:59;98567.60;;;3.60;71.29
50302;BME280;36550;50.472;19.744;2024-03-08T11:37:43;98565.08;;;3.60;71.51
50302;BME280;36550;50.472;19.744;2024-03-08T11:40:28;98561.09;;;3.60;72.28
50302;BME280;36550;50.472;19.744;2024-03-08T11:43:12;98558.08;;;3.62;72.11
50302;BME280;36550;50.472;19.744;2024-03-08T11:46:10;98552.33;;;3.70;72.36
50302;BME280;36550;50.472;19.744;2024-03-08T11:48:58;98547.17;;;3.75;71.02
50302;BME280;36550;50.472;19.744;2024-03-08T11:51:43;98537.70;;;3.79;71.16
50302;BME280;36550;50.472;19.744;2024-03-08T11:54:27;98533.58;;;3.80;71.63
50302;BME280;36550;50.472;19.744;2024-03-08T11:57:11;98531.39;;;3.82;72.15
50302;BME280;36550;50.472;19.744;2024-03-08T11:59:56;98530.48;;;3.89;72.45
50302;BME280;36550;50.472;19.744;2024-03-08T12:02:40;98528.99;;;3.94;72.20
50302;BME280;36550;50.472;19.744;2024-03-08T12:05:26;98525.02;;;3.95;72.24
50302;BME280;36550;50.472;19.744;2024-03-08T12:08:11;98528.20;;;3.96;72.23
50302;BME280;36550;50.472;19.744;2024-03-08T12:10:56;98528.52;;;4.01;71.99
50302;BME280;36550;50.472;19.744;2024-03-08T12:13:43;98525.79;;;4.05;72.14
50302;BME280;36550;50.472;19.744;2024-03-08T12:16:30;98524.52;;;4.09;71.97
50302;BME280;36550;50.472;19.744;2024-03-08T12:19:15;98523.68;;;4.11;71.48
50302;BME280;36550;50.472;19.744;2024-03-08T12:22:07;98521.48;;;4.14;70.96
50302;BME280;36550;50.472;19.744;2024-03-08T12:25:04;98517.88;;;4.18;71.09
50302;BME280;36550;50.472;19.744;2024-03-08T12:27:49;98516.23;;;4.20;71.07
50302;BME280;36550;50.472;19.744;2024-03-08T12:30:45;98512.11;;;4.20;70.49
50302;BME280;36550;50.472;19.744;2024-03-08T12:33:29;98516.23;;;4.20;70.71
50302;BME280;36550;50.472;19.744;2024-03-08T12:36:16;98510.62;;;4.25;71.34
50302;BME280;36550;50.472;19.744;2024-03-08T12:39:00;98504.50;;;4.27;71.01
50302;BME280;36550;50.472;19.744;2024-03-08T12:41:44;98497.56;;;4.29;71.72
50302;BME280;36550;50.472;19.744;2024-03-08T12:44:31;98499.23;;;4.32;71.50
50302;BME280;36550;50.472;19.744;2024-03-08T12:47:15;98496.36;;;4.33;70.98
50302;BME280;36550;50.472;19.744;2024-03-08T12:49:59;98493.98;;;4.34;71.44
50302;BME280;36550;50.472;19.744;2024-03-08T12:52:44;98492.89;;;4.36;71.78
50302;BME280;36550;50.472;19.744;2024-03-08T12:55:28;98489.55;;;4.38;70.88
50302;BME280;36550;50.472;19.744;2024-03-08T12:58:13;98486.25;;;4.39;71.92
50302;BME280;36550;50.472;19.744;2024-03-08T13:00:57;98484.77;;;4.42;71.27
50302;BME280;36550;50.472;19.744;2024-03-08T13:03:41;98481.92;;;4.42;71.33
50302;BME280;36550;50.472;19.744;2024-03-08T13:06:28;98480.00;;;4.42;71.26
50302;BME280;36550;50.472;19.744;2024-03-08T13:09:12;98478.08;;;4.41;70.45
50302;BME280;36550;50.472;19.744;2024-03-08T13:11:57;98476.19;;;4.44;70.52
50302;BME280;36550;50.472;19.744;2024-03-08T13:14:42;98474.95;;;4.44;69.87
50302;BME280;36550;50.472;19.744;2024-03-08T13:17:27;98471.84;;;4.42;70.10
50302;BME280;36550;50.472;19.744;2024-03-08T13:20:13;98467.37;;;4.42;70.59
50302;BME280;36550;50.472;19.744;2024-03-08T13:23:02;98464.37;;;4.41;70.59
50302;BME280;36550;50.472;19.744;2024-03-08T13:25:46;98467.64;;;4.41;69.99
50302;BME280;36550;50.472;19.744;2024-03-08T13:28:34;98459.58;;;4.42;71.17
50302;BME280;36550;50.472;19.744;2024-03-08T13:31:21;98458.92;;;4.42;70.85
50302;BME280;36550;50.472;19.744;2024-03-08T13:34:05;98457.09;;;4.38;70.99
50302;BME280;36550;50.472;19.744;2024-03-08T13:36:49;98456.73;;;4.37;70.94
50302;BME280;36550;50.472;19.744;2024-03-08T13:39:36;98455.64;;;4.37;70.98
50302;BME280;36550;50.472;19.744;2024-03-08T13:42:24;98452.98;;;4.35;70.51
50302;BME280;36550;50.472;19.744;2024-03-08T13:45:09;98452.61;;;4.31;70.76
50302;BME280;36550;50.472;19.744;2024-03-08T13:47:58;98451.65;;;4.30;71.07
50302;BME280;36550;50.472;19.744;2024-03-08T13:50:42;98446.52;;;4.30;71.06
50302;BME280;36550;50.472;19.744;2024-03-08T13:53:27;98447.58;;;4.34;71.11
50302;BME280;36550;50.472;19.744;2024-03-08T13:56:11;98446.53;;;4.38;70.87
50302;BME280;36550;50.472;19.744;2024-03-08T13:58:55;98439.06;;;4.41;70.77
50302;BME280;36550;50.472;19.744;2024-03-08T14:01:41;98438.03;;;4.43;70.62
50302;BME280;36550;50.472;19.744;2024-03-08T14:04:28;98436.23;;;4.42;70.75
50302;BME280;36550;50.472;19.744;2024-03-08T14:07:12;98438.31;;;4.42;70.83
50302;BME280;36550;50.472;19.744;2024-03-08T14:09:57;98435.95;;;4.40;70.57
50302;BME280;36550;50.472;19.744;2024-03-08T14:12:41;98432.98;;;4.39;71.01
50302;BME280;36550;50.472;19.744;2024-03-08T14:15:27;98433.11;;;4.38;70.83
50302;BME280;36550;50.472;19.744;2024-03-08T14:18:11;98431.30;;;4.37;71.17
50302;BME280;36550;50.472;19.744;2024-03-08T14:20:57;98428.91;;;4.35;70.83
50302;BME280;36550;50.472;19.744;2024-03-08T14:23:42;98429.51;;;4.34;70.79
50302;BME280;36550;50.472;19.744;2024-03-08T14:26:27;98425.21;;;4.33;70.94
50302;BME280;36550;50.472;19.744;2024-03-08T14:29:11;98422.16;;;4.31;71.08
50302;BME280;36550;50.472;19.744;2024-03-08T14:31:55;98422.61;;;4.30;70.80
50302;BME280;36550;50.472;19.744;2024-03-08T14:34:43;98420.38;;;4.30;70.94
50302;BME280;36550;50.472;19.744;2024-03-08T14:37:27;98418.02;;;4.29;71.24
50302;BME280;36550;50.472;19.744;2024-03-08T14:40:13;98416.88;;;4.30;70.86
50302;BME280;36550;50.472;19.744;2024-03-08T14:42:59;98415.45;;;4.33;71.33
50302;BME280;36550;50.472;19.744;2024-03-08T14:45:43;98407.94;;;4.36;71.51